Time;durP1;ratioP1;P1;durP2;ratioP2;P2;SDS_P1;SDS_P2;PMS_P1;PMS_P2;Temp;Humidity;BMP_temperature;BMP_pressure;BME280_temperature;BME280_humidity;BME280_pressure;Samples;Min_cycle;Max_cycle;Signal;HPM_P1;HPM_P2
2023/08/31 00:00:41;;;;;;;2.93;2.63;;;;;;;14.93;100.00;99743.06;4969726;28;20248;-78
2023/08/31 00:03:06;;;;;;;3.40;2.67;;;;;;;14.89;100.00;99744.94;4969641;28;20244;-80
2023/08/31 00:05:32;;;;;;;2.90;2.60;;;;;;;14.87;100.00;99745.88;5006759;28;20207;-78
2023/08/31 00:07:57;;;;;;;2.47;2.17;;;;;;;14.84;100.00;99743.38;4978981;28;20210;-76
2023/08/31 00:10:23;;;;;;;2.73;2.40;;;;;;;14.84;100.00;99757.25;4965474;28;20462;-75
2023/08/31 00:12:49;;;;;;;3.33;2.87;;;;;;;14.87;100.00;99751.94;4985759;28;20174;-77
2023/08/31 00:15:15;;;;;;;3.30;3.00;;;;;;;14.87;100.00;99751.94;4960327;28;20197;-76
2023/08/31 00:17:40;;;;;;;2.90;2.60;;;;;;;14.90;100.00;99749.19;4986316;28;20170;-75
2023/08/31 00:20:11;;;;;;;3.23;2.40;;;;;;;14.86;100.00;99747.63;4962808;28;20210;-76
2023/08/31 00:22:37;;;;;;;2.47;2.27;;;;;;;14.85;100.00;99748.53;4966789;28;20712;-78
2023/08/31 00:25:02;;;;;;;2.70;2.13;;;;;;;14.82;100.00;99740.00;4964913;28;20269;-75
2023/08/31 00:27:29;;;;;;;3.73;2.80;;;;;;;14.78;100.00;99734.88;4967126;28;20216;-77
2023/08/31 00:29:55;;;;;;;3.53;2.90;;;;;;;14.76;100.00;99734.09;4968243;28;20692;-77
2023/08/31 00:32:22;;;;;;;2.83;2.50;;;;;;;14.70;100.00;99736.88;4967970;28;20197;-77
2023/08/31 00:34:48;;;;;;;3.90;2.60;;;;;;;14.66;100.00;99740.50;4969668;28;20180;-79
2023/08/31 00:37:13;;;;;;;2.83;2.30;;;;;;;14.62;100.00;99742.34;4966402;28;20189;-78
2023/08/31 00:39:43;;;;;;;2.30;2.10;;;;;;;14.59;100.00;99733.78;4967893;28;20336;-77
2023/08/31 00:42:08;;;;;;;2.70;2.50;;;;;;;14.53;100.00;99745.25;4976761;28;20245;-78
2023/08/31 00:44:34;;;;;;;3.67;2.37;;;;;;;14.50;100.00;99744.53;4967879;28;20190;-78
2023/08/31 00:47:00;;;;;;;3.30;2.60;;;;;;;14.45;100.00;99739.44;4968148;28;20282;-77
2023/08/31 00:49:25;;;;;;;3.03;2.63;;;;;;;14.41;100.00;99743.91;4971457;28;20210;-77
2023/08/31 00:51:51;;;;;;;2.83;2.60;;;;;;;14.39;100.00;99744.88;4968462;28;20538;-76
2023/08/31 00:54:22;;;;;;;3.10;2.47;;;;;;;14.35;100.00;99751.09;4971258;28;20188;-75
2023/08/31 00:56:52;;;;;;;2.83;2.40;;;;;;;14.30;100.00;99749.47;4969731;28;20636;-77
2023/08/31 00:59:18;;;;;;;3.00;2.70;;;;;;;14.27;100.00;99751.34;4959500;28;20252;-77
2023/08/31 01:01:51;;;;;;;3.73;2.63;;;;;;;14.23;100.00;99760.13;4965926;28;20243;-77
2023/08/31 01:04:33;;;;;;;2.50;2.30;;;;;;;14.19;100.00;99759.38;4969165;28;20683;-76
2023/08/31 01:07:18;;;;;;;3.00;2.63;;;;;;;14.16;100.00;99762.09;4968727;28;20220;-78
2023/08/31 01:10:07;;;;;;;3.20;2.57;;;;;;;14.13;100.00;99759.59;4972208;28;20208;-77
2023/08/31 01:13:13;;;;;;;2.43;2.23;;;;;;;14.09;100.00;99764.03;4967641;28;20197;-76
2023/08/31 01:15:41;;;;;;;3.77;2.70;;;;;;;14.07;100.00;99765.00;4966972;28;20281;-76
2023/08/31 01:18:10;;;;;;;2.97;2.53;;;;;;;14.06;100.00;99768.50;4971277;28;20195;-75
2023/08/31 01:21:00;;;;;;;2.83;2.60;;;;;;;14.04;100.00;99763.34;4964600;28;20183;-76
2023/08/31 01:23:34;;;;;;;2.90;2.23;;;;;;;14.08;100.00;99766.69;4973681;28;20195;-78
2023/08/31 01:26:02;;;;;;;2.90;2.60;;;;;;;14.09;100.00;99763.19;4975474;28;20204;-77
2023/08/31 01:28:28;;;;;;;3.67;2.80;;;;;;;14.12;100.00;99768.31;4970452;28;20222;-79
2023/08/31 01:30:53;;;;;;;2.63;2.43;;;;;;;14.14;100.00;99769.13;4979219;28;20194;-76
2023/08/31 01:33:18;;;;;;;3.40;2.57;;;;;;;14.15;100.00;99766.47;4977527;28;20193;-76
2023/08/31 01:35:49;;;;;;;4.53;2.13;;;;;;;14.18;100.00;99775.91;4987391;28;20313;-79
2023/08/31 01:38:21;;;;;;;3.03;2.73;;;;;;;14.23;100.00;99770.53;4966628;28;20210;-77
2023/08/31 01:40:58;;;;;;;3.33;3.07;;;;;;;14.23;100.00;99773.16;4975899;28;20192;-76
2023/08/31 01:43:24;;;;;;;4.27;2.60;;;;;;;14.25;100.00;99768.75;4970427;28;20200;-76
2023/08/31 01:45:50;;;;;;;3.10;2.80;;;;;;;14.28;100.00;99773.84;4969859;28;20208;-78
2023/08/31 01:48:15;;;;;;;2.83;2.50;;;;;;;14.29;100.00;99770.34;4969200;28;20202;-75
2023/08/31 01:50:41;;;;;;;3.43;2.57;;;;;;;14.30;100.00;99779.88;4971904;28;20555;-76
2023/08/31 01:53:06;;;;;;;3.57;2.53;;;;;;;14.31;100.00;99782.41;4969309;28;20230;-77
2023/08/31 01:55:32;;;;;;;4.03;2.73;;;;;;;14.31;100.00;99784.19;4969363;28;20195;-78
2023/08/31 01:57:58;;;;;;;5.33;3.03;;;;;;;14.30;100.00;99780.72;4966386;28;20215;-75
2023/08/31 02:00:25;;;;;;;4.50;2.63;;;;;;;14.31;100.00;99792.00;4976644;28;20546;-79
2023/08/31 02:02:51;;;;;;;3.57;2.60;;;;;;;14.30;100.00;99785.91;4985115;28;20261;-79
2023/08/31 02:05:16;;;;;;;3.17;2.80;;;;;;;14.30;100.00;99782.47;4975310;28;20751;-78
2023/08/31 02:07:42;;;;;;;2.70;2.50;;;;;;;14.31;100.00;99785.00;4974360;28;20238;-76
2023/08/31 02:10:07;;;;;;;2.67;2.47;;;;;;;14.32;100.00;99785.88;4973941;28;20238;-76
2023/08/31 02:12:33;;;;;;;3.03;2.60;;;;;;;14.33;100.00;99785.81;4967680;28;20189;-77
2023/08/31 02:14:59;;;;;;;3.03;2.73;;;;;;;14.35;100.00;99785.78;4966178;28;20288;-77
2023/08/31 02:17:25;;;;;;;4.83;2.87;;;;;;;14.35;100.00;99784.91;4971989;28;20219;-77
2023/08/31 02:19:50;;;;;;;3.10;2.50;;;;;;;14.35;100.00;99780.59;4965924;28;20711;-78
2023/08/31 02:22:16;;;;;;;2.50;2.17;;;;;;;14.36;100.00;99787.50;4974129;28;20199;-76
2023/08/31 02:24:41;;;;;;;2.70;2.50;;;;;;;14.37;100.00;99788.31;4970007;28;20271;-76
2023/08/31 02:27:06;;;;;;;2.60;2.40;;;;;;;14.37;100.00;99790.94;4967244;28;20227;-76
2023/08/31 02:29:32;;;;;;;4.37;2.97;;;;;;;14.38;100.00;99795.25;4963902;28;20217;-78
2023/08/31 02:31:57;;;;;;;3.10;2.60;;;;;;;14.38;100.00;99800.44;4961698;28;20222;-77
2023/08/31 02:34:22;;;;;;;2.90;2.40;;;;;;;14.38;100.00;99806.50;4965806;28;20756;-78
2023/08/31 02:36:47;;;;;;;4.00;3.13;;;;;;;14.40;100.00;99809.06;4970359;28;20193;-76
2023/08/31 02:39:13;;;;;;;4.07;2.93;;;;;;;14.36;100.00;99810.91;4969322;28;20212;-77
2023/08/31 02:41:38;;;;;;;3.23;2.80;;;;;;;14.36;100.00;99805.72;4972239;28;20196;-80
2023/08/31 02:44:04;;;;;;;2.93;2.60;;;;;;;14.36;100.00;99810.91;4975659;28;20676;-79
2023/08/31 02:46:29;;;;;;;3.00;2.70;;;;;;;14.35;100.00;99811.81;4988753;28;20279;-79
2023/08/31 02:48:55;;;;;;;2.73;2.53;;;;;;;14.35;100.00;99809.22;4974478;28;20926;-77
2023/08/31 02:51:20;;;;;;;3.07;2.70;;;;;;;14.32;100.00;99802.34;4969590;28;20186;-77
2023/08/31 02:53:45;;;;;;;3.97;2.97;;;;;;;14.33;100.00;99803.19;4970165;28;20531;-78
2023/08/31 02:56:11;;;;;;;4.10;2.70;;;;;;;14.31;100.00;99798.03;4964001;28;20234;-77
2023/08/31 02:58:36;;;;;;;4.20;3.37;;;;;;;14.27;100.00;99799.06;4964302;28;20824;-78
2023/08/31 03:01:12;;;;;;;3.23;2.93;;;;;;;14.26;100.00;99809.50;4966857;28;20230;-76
2023/08/31 03:03:39;;;;;;;3.13;2.80;;;;;;;14.23;100.00;99810.44;4969321;28;20246;-79
2023/08/31 03:06:06;;;;;;;3.20;2.90;;;;;;;14.22;100.00;99807.91;4983505;28;20197;-77
2023/08/31 03:08:31;;;;;;;2.80;2.53;;;;;;;14.21;100.00;99819.22;4968319;28;20728;-78
2023/08/31 03:10:57;;;;;;;2.70;2.50;;;;;;;14.19;100.00;99811.44;4972102;28;20191;-76
2023/08/31 03:13:22;;;;;;;2.97;2.77;;;;;;;14.20;100.00;99815.75;4992647;28;20220;-76
2023/08/31 03:15:48;;;;;;;3.00;2.80;;;;;;;14.19;100.00;99819.25;4990553;28;20200;-77
2023/08/31 03:18:13;;;;;;;3.47;3.00;;;;;;;14.21;100.00;99824.41;4970427;28;21483;-78
2023/08/31 03:20:38;;;;;;;3.17;2.87;;;;;;;14.21;100.00;99814.00;4973522;28;20191;-77
2023/08/31 03:23:04;;;;;;;2.93;2.70;;;;;;;14.23;100.00;99820.84;4971503;28;20274;-78
2023/08/31 03:25:29;;;;;;;5.13;3.07;;;;;;;14.24;100.00;99821.69;4971783;28;20673;-80
2023/08/31 03:27:55;;;;;;;4.37;3.20;;;;;;;14.24;100.00;99819.97;4951739;28;20212;-78
2023/08/31 03:30:20;;;;;;;3.53;2.90;;;;;;;14.27;100.00;99825.06;4972321;28;20235;-77
2023/08/31 03:32:45;;;;;;;3.47;3.17;;;;;;;14.26;100.00;99831.19;4971812;28;20280;-77
2023/08/31 03:35:11;;;;;;;5.03;3.30;;;;;;;14.28;100.00;99838.94;4972199;28;20291;-77
2023/08/31 03:37:37;;;;;;;3.13;2.83;;;;;;;14.30;100.00;99837.13;4975945;28;20192;-76
2023/08/31 03:40:04;;;;;;;3.50;3.00;;;;;;;14.32;100.00;99840.53;4971270;28;20218;-77
2023/08/31 03:42:29;;;;;;;3.23;2.43;;;;;;;14.35;100.00;99845.66;4974791;28;20200;-78
2023/08/31 03:44:54;;;;;;;4.67;2.93;;;;;;;14.36;100.00;99841.28;4971504;28;20282;-76
2023/08/31 03:47:20;;;;;;;3.87;3.20;;;;;;;14.38;100.00;99847.31;4960218;28;20225;-77
2023/08/31 03:49:45;;;;;;;3.70;2.60;;;;;;;14.37;100.00;99848.19;4971287;28;20223;-76
2023/08/31 03:52:10;;;;;;;3.23;2.67;;;;;;;14.38;100.00;99852.50;4971307;28;20557;-76
2023/08/31 03:54:36;;;;;;;4.90;3.13;;;;;;;14.40;100.00;99853.31;4972387;28;20206;-76
2023/08/31 03:57:02;;;;;;;4.10;3.07;;;;;;;14.41;100.00;99855.03;4977868;28;20177;-79
2023/08/31 03:59:27;;;;;;;3.43;2.97;;;;;;;14.41;100.00;99845.44;4993536;28;20251;-80
2023/08/31 04:01:52;;;;;;;2.73;2.53;;;;;;;14.40;100.00;99853.31;4988468;28;20204;-76
2023/08/31 04:04:18;;;;;;;5.90;3.30;;;;;;;14.39;100.00;99855.06;4974366;28;20213;-77
2023/08/31 04:06:43;;;;;;;3.27;2.93;;;;;;;14.38;100.00;99855.94;4977600;28;20569;-77
2023/08/31 04:09:09;;;;;;;3.60;3.20;;;;;;;14.39;100.00;99855.06;4973229;28;20641;-76
2023/08/31 04:11:34;;;;;;;4.70;3.03;;;;;;;14.38;100.00;99855.13;4967354;28;20193;-76
2023/08/31 04:13:59;;;;;;;5.30;3.03;;;;;;;14.38;100.00;99857.72;4977910;28;20205;-77
2023/08/31 04:16:25;;;;;;;3.10;2.63;;;;;;;14.38;100.00;99863.75;4967947;28;20202;-76
2023/08/31 04:18:51;;;;;;;3.67;2.73;;;;;;;14.37;100.00;99856.00;4976576;28;20226;-78
2023/08/31 04:21:18;;;;;;;3.27;2.90;;;;;;;14.40;100.00;99856.75;4960300;28;20188;-77
2023/08/31 04:23:43;;;;;;;2.90;2.70;;;;;;;14.40;100.00;99872.38;4990038;28;20188;-76
2023/08/31 04:26:10;;;;;;;5.47;3.13;;;;;;;14.38;100.00;99868.97;4980588;28;20732;-77
2023/08/31 04:28:35;;;;;;;3.20;2.63;;;;;;;14.39;100.00;99869.84;4976702;28;20308;-78
2023/08/31 04:31:04;;;;;;;3.00;2.53;;;;;;;14.41;100.00;99873.25;4973789;28;20229;-76
2023/08/31 04:33:30;;;;;;;4.17;2.60;;;;;;;14.41;100.00;99873.25;4976589;28;20244;-77
2023/08/31 04:35:55;;;;;;;4.60;3.00;;;;;;;14.41;100.00;99868.88;4972085;28;20587;-76
2023/08/31 04:38:20;;;;;;;2.90;2.70;;;;;;;14.40;100.00;99874.97;4961674;28;20178;-76
2023/08/31 04:40:45;;;;;;;3.00;2.70;;;;;;;14.40;100.00;99877.59;4974828;28;20186;-76
2023/08/31 04:43:11;;;;;;;3.20;2.90;;;;;;;14.40;100.00;99879.34;4976714;28;20760;-76
2023/08/31 04:45:36;;;;;;;4.20;3.07;;;;;;;14.39;100.00;99875.88;4977171;28;20264;-76
2023/08/31 04:48:03;;;;;;;3.33;3.03;;;;;;;14.40;100.00;99874.13;4993819;28;20700;-76
2023/08/31 04:50:28;;;;;;;2.97;2.63;;;;;;;14.40;100.00;99874.97;4972786;28;20209;-77
2023/08/31 04:52:54;;;;;;;3.03;2.77;;;;;;;14.42;100.00;99880.16;4975290;28;20204;-77
2023/08/31 04:55:21;;;;;;;3.63;2.60;;;;;;;14.44;100.00;99878.34;4971939;28;20183;-77
2023/08/31 04:57:47;;;;;;;4.50;2.83;;;;;;;14.44;100.00;99883.56;4978835;28;20180;-77
2023/08/31 05:00:12;;;;;;;3.50;3.20;;;;;;;14.44;100.00;99871.38;4970090;28;20368;-77
2023/08/31 05:02:38;;;;;;;2.80;2.60;;;;;;;14.45;100.00;99882.63;4975705;28;20255;-76
2023/08/31 05:05:04;;;;;;;4.80;3.00;;;;;;;14.44;100.00;99881.81;4973601;28;21054;-77
2023/08/31 05:07:30;;;;;;;3.13;2.83;;;;;;;14.44;100.00;99887.00;4984345;28;20717;-76
2023/08/31 05:09:55;;;;;;;3.80;2.87;;;;;;;14.47;100.00;99894.72;4981150;28;20254;-76
2023/08/31 05:12:20;;;;;;;3.50;2.80;;;;;;;14.47;100.00;99893.84;4992091;28;20186;-77
2023/08/31 05:14:46;;;;;;;3.30;3.00;;;;;;;14.50;100.00;99905.94;4999188;28;20214;-76
2023/08/31 05:17:14;;;;;;;2.80;2.60;;;;;;;14.53;100.00;99918.84;4979170;28;20215;-76
2023/08/31 05:19:39;;;;;;;5.03;3.17;;;;;;;14.53;100.00;99917.13;4970231;28;20206;-80
2023/08/31 05:22:05;;;;;;;4.73;2.70;;;;;;;14.54;100.00;99910.13;4977755;28;20191;-79
2023/08/31 05:24:33;;;;;;;4.17;3.00;;;;;;;14.56;100.00;99923.97;4975899;28;20208;-80
2023/08/31 05:26:58;;;;;;;3.50;2.90;;;;;;;14.59;100.00;99924.75;4969270;28;20232;-79
2023/08/31 05:29:26;;;;;;;3.10;2.90;;;;;;;14.61;100.00;99925.53;4975865;28;20289;-79
2023/08/31 05:31:53;;;;;;;3.90;3.07;;;;;;;14.63;100.00;99935.91;4983005;28;20181;-79
2023/08/31 05:34:22;;;;;;;4.63;3.10;;;;;;;14.67;100.00;99931.44;4965264;28;20216;-81
2023/08/31 05:36:53;;;;;;;4.33;2.80;;;;;;;14.69;100.00;99932.28;4975129;28;20178;-78
2023/08/31 05:39:19;;;;;;;4.07;2.90;;;;;;;14.69;100.00;99932.28;4969121;28;20199;-79
2023/08/31 05:41:44;;;;;;;5.60;3.17;;;;;;;14.72;100.00;99938.25;4972732;28;20557;-80
2023/08/31 05:44:10;;;;;;;4.60;2.93;;;;;;;14.74;100.00;99933.00;4987890;28;20350;-78
2023/08/31 05:46:36;;;;;;;4.13;3.00;;;;;;;14.80;100.00;99937.16;4971617;28;20180;-78
2023/08/31 05:49:01;;;;;;;4.67;2.70;;;;;;;14.84;100.00;99939.63;4970846;28;20205;-78
2023/08/31 05:51:27;;;;;;;4.67;2.80;;;;;;;14.89;100.00;99936.84;4973517;28;20302;-78
2023/08/31 05:53:52;;;;;;;4.10;2.80;;;;;;;14.91;100.00;99930.69;4962625;28;20631;-77
2023/08/31 05:56:19;;;;;;;3.77;3.10;;;;;;;14.98;100.00;99939.16;4977567;28;20190;-79
2023/08/31 05:58:45;;;;;;;3.80;2.90;;;;;;;15.04;100.00;99933.75;4995583;28;20206;-77
2023/08/31 06:01:10;;;;;;;4.33;2.83;;;;;;;15.19;100.00;99936.75;4969869;28;20201;-76
2023/08/31 06:03:36;;;;;;;2.60;2.40;;;;;;;15.34;100.00;99943.19;4970261;28;21119;-76
2023/08/31 06:06:02;;;;;;;3.57;2.80;;;;;;;15.53;100.00;99931.19;4971567;28;20564;-77
2023/08/31 06:08:27;;;;;;;3.37;2.50;;;;;;;15.78;100.00;99934.69;4971530;28;20244;-76
2023/08/31 06:10:55;;;;;;;2.93;2.50;;;;;;;16.08;100.00;99942.34;4965993;28;20189;-77
2023/08/31 06:13:20;;;;;;;2.90;2.37;;;;;;;16.38;100.00;99950.78;4977755;28;20186;-76
2023/08/31 06:15:46;;;;;;;2.90;2.23;;;;;;;16.67;100.00;99955.75;4979603;28;20185;-76
2023/08/31 06:18:11;;;;;;;2.53;2.33;;;;;;;16.95;100.00;99947.69;4965916;28;20186;-77
2023/08/31 06:20:37;;;;;;;2.80;2.20;;;;;;;17.35;100.00;99953.88;4968431;28;20182;-77
2023/08/31 06:23:05;;;;;;;3.37;2.40;;;;;;;17.70;100.00;99955.88;4972949;28;20189;-76
2023/08/31 06:25:30;;;;;;;3.43;2.10;;;;;;;18.01;100.00;99970.25;4960766;28;20194;-77
2023/08/31 06:27:58;;;;;;;4.47;2.40;;;;;;;18.19;100.00;99963.34;4985346;28;20201;-78
2023/08/31 06:30:24;;;;;;;2.70;2.00;;;;;;;18.48;100.00;99968.13;4980511;28;20259;-80
2023/08/31 06:32:50;;;;;;;3.53;2.17;;;;;;;18.57;100.00;99967.72;4972562;28;20186;-77
2023/08/31 06:35:15;;;;;;;4.27;1.90;;;;;;;18.69;100.00;99969.75;4969070;28;20190;-77
2023/08/31 06:37:41;;;;;;;3.30;1.77;;;;;;;18.75;100.00;99976.47;4971681;28;20213;-77
2023/08/31 06:40:08;;;;;;;2.70;1.80;;;;;;;18.69;100.00;99972.34;4968607;28;20613;-78
2023/08/31 06:42:37;;;;;;;2.50;1.83;;;;;;;18.56;100.00;99974.69;4967881;28;20198;-77
2023/08/31 06:45:07;;;;;;;1.97;1.70;;;;;;;18.50;100.00;99979.38;4970782;28;20900;-77
2023/08/31 06:47:33;;;;;;;2.60;1.93;;;;;;;18.47;100.00;99982.16;4967001;28;20203;-77
2023/08/31 06:49:59;;;;;;;2.53;2.00;;;;;;;18.42;100.00;99978.00;4955220;28;20212;-78
2023/08/31 06:52:25;;;;;;;2.53;1.90;;;;;;;18.45;100.00;99981.41;4955201;28;20197;-79
2023/08/31 06:54:54;;;;;;;3.10;2.00;;;;;;;18.54;100.00;99983.56;4968982;28;20605;-77
2023/08/31 06:57:20;;;;;;;2.40;2.10;;;;;;;18.65;100.00;99985.69;4970841;28;20184;-76
2023/08/31 06:59:47;;;;;;;3.00;2.03;;;;;;;18.81;100.00;99984.03;4972677;28;20289;-77
2023/08/31 07:02:12;;;;;;;3.73;2.10;;;;;;;19.08;100.00;99993.25;4972612;28;20209;-77
2023/08/31 07:04:37;;;;;;;2.53;1.73;;;;;;;19.34;100.00;99999.84;4964655;28;20277;-78
2023/08/31 07:07:04;;;;;;;3.90;2.13;;;;;;;19.69;100.00;100005.09;4973599;28;20679;-77
2023/08/31 07:09:30;;;;;;;4.13;1.80;;;;;;;20.07;100.00;99997.00;4976261;28;20248;-78
2023/08/31 07:11:55;;;;;;;3.10;1.80;;;;;;;20.41;100.00;100003.06;4982608;28;20174;-78
2023/08/31 07:14:21;;;;;;;3.43;1.67;;;;;;;20.73;100.00;99998.72;4970762;28;20194;-79
2023/08/31 07:16:46;;;;;;;3.20;2.20;;;;;;;20.75;100.00;99997.72;4970032;28;20209;-79
2023/08/31 07:19:11;;;;;;;3.50;2.10;;;;;;;21.11;98.73;100001.84;4970758;28;20212;-79
2023/08/31 07:21:36;;;;;;;2.37;1.60;;;;;;;21.35;96.93;99996.06;4968662;28;20192;-79
2023/08/31 07:24:02;;;;;;;5.47;1.97;;;;;;;21.52;95.45;100002.13;4976668;28;20201;-79
2023/08/31 07:26:28;;;;;;;2.93;1.73;;;;;;;21.61;96.04;99999.84;4970838;28;20240;-79
2023/08/31 07:28:54;;;;;;;2.00;1.80;;;;;;;21.74;94.31;100004.34;4965638;28;20400;-79
2023/08/31 07:31:19;;;;;;;3.77;2.17;;;;;;;21.75;93.30;100003.41;4982979;28;20293;-79
2023/08/31 07:33:45;;;;;;;2.70;2.03;;;;;;;21.51;93.04;100005.69;4977145;28;20189;-79
2023/08/31 07:36:10;;;;;;;2.47;2.00;;;;;;;21.35;93.53;99998.72;4985482;28;20211;-80
2023/08/31 07:38:35;;;;;;;2.63;2.03;;;;;;;21.64;92.46;100005.84;4976825;28;20201;-79
2023/08/31 07:41:01;;;;;;;2.87;1.63;;;;;;;21.88;92.14;100007.00;4971668;28;20236;-80
2023/08/31 07:43:26;;;;;;;3.97;1.97;;;;;;;22.08;89.55;100008.41;4968509;28;20244;-79
2023/08/31 07:45:53;;;;;;;3.23;2.00;;;;;;;22.23;89.74;100019.78;4985974;28;20294;-80
2023/08/31 07:48:18;;;;;;;3.20;1.80;;;;;;;22.38;89.02;100025.06;4974962;28;20202;-80
2023/08/31 07:50:44;;;;;;;3.77;1.73;;;;;;;22.50;89.40;100021.66;4977419;28;20194;-81
2023/08/31 07:53:10;;;;;;;3.93;2.20;;;;;;;22.29;89.15;100025.66;4973600;28;20196;-80
2023/08/31 07:55:36;;;;;;;2.57;1.60;;;;;;;22.39;88.61;100027.59;4975909;28;20185;-80
2023/08/31 07:58:01;;;;;;;3.20;1.77;;;;;;;22.46;87.82;100032.50;4972436;28;20698;-78
2023/08/31 08:00:27;;;;;;;4.03;2.00;;;;;;;22.25;86.96;100034.69;4973964;28;20292;-78
2023/08/31 08:02:52;;;;;;;2.13;1.80;;;;;;;22.01;87.20;100037.84;4970198;28;20193;-79
2023/08/31 08:05:17;;;;;;;2.47;1.70;;;;;;;22.03;87.70;100030.72;4972879;28;20179;-80
2023/08/31 08:07:43;;;;;;;2.40;1.90;;;;;;;22.05;87.32;100034.09;4974062;28;20294;-78
2023/08/31 08:10:09;;;;;;;4.80;2.43;;;;;;;22.14;86.08;100033.56;4975199;28;20208;-78
2023/08/31 08:12:46;;;;;;;2.40;1.60;;;;;;;22.09;85.33;100040.88;4987740;28;20197;-78
2023/08/31 08:15:12;;;;;;;3.37;1.87;;;;;;;22.03;85.21;100042.13;4973350;28;20197;-78
2023/08/31 08:17:37;;;;;;;3.97;2.23;;;;;;;21.72;87.03;100036.06;4972415;28;20202;-78
2023/08/31 08:20:05;;;;;;;2.83;1.90;;;;;;;21.71;85.52;100036.13;4972926;28;20208;-78
2023/08/31 08:22:30;;;;;;;2.80;1.70;;;;;;;21.56;86.72;100040.50;4970221;28;20197;-78
2023/08/31 08:24:55;;;;;;;4.27;2.23;;;;;;;21.12;87.30;100037.75;4970698;28;20186;-79
2023/08/31 08:27:20;;;;;;;3.57;2.07;;;;;;;21.10;86.10;100036.16;4979549;28;20209;-79
2023/08/31 08:29:46;;;;;;;4.13;1.90;;;;;;;20.99;85.18;100040.22;4959967;28;20202;-77
2023/08/31 08:32:12;;;;;;;4.27;2.17;;;;;;;20.86;83.52;100047.97;4989289;28;20308;-79
2023/08/31 08:34:37;;;;;;;3.17;1.70;;;;;;;;;;4963459;28;20197;-79
2023/08/31 08:37:05;;;;;;;3.40;2.03;;;;;;;20.74;82.27;100040.69;4965137;28;20245;-79
2023/08/31 08:39:30;;;;;;;3.40;2.17;;;;;;;20.73;83.24;100049.53;4960424;28;20233;-78
2023/08/31 08:41:58;;;;;;;2.83;2.13;;;;;;;20.71;83.10;100059.31;4970498;28;20353;-79
2023/08/31 08:44:25;;;;;;;2.60;1.77;;;;;;;20.62;82.71;100052.78;4970323;28;20190;-77
2023/08/31 08:46:51;;;;;;;4.53;2.03;;;;;;;20.46;82.45;100055.38;4966365;28;20547;-77
2023/08/31 08:49:21;;;;;;;4.33;2.27;;;;;;;20.50;79.86;100056.91;4987459;28;20212;-78
2023/08/31 08:51:47;;;;;;;3.57;2.10;;;;;;;20.49;80.67;100059.63;4969154;28;20191;-79
2023/08/31 08:54:13;;;;;;;3.97;1.87;;;;;;;20.45;80.72;100061.56;4968433;28;20201;-78
2023/08/31 08:56:38;;;;;;;2.67;1.87;;;;;;;20.53;80.35;100061.13;4976569;28;20736;-77
2023/08/31 08:59:05;;;;;;;2.53;1.70;;;;;;;20.56;78.01;100056.59;4967884;28;20210;-77
2023/08/31 09:01:32;;;;;;;4.10;1.73;;;;;;;20.49;78.64;100057.00;4965807;28;20250;-77
2023/08/31 09:03:57;;;;;;;3.13;2.13;;;;;;;20.55;78.95;100057.50;4959878;28;20197;-77
2023/08/31 09:06:23;;;;;;;4.43;2.00;;;;;;;20.53;79.41;100062.00;4988859;28;20183;-77
2023/08/31 09:08:57;;;;;;;4.47;1.60;;;;;;;20.60;79.58;100064.28;4964510;28;20714;-78
2023/08/31 09:11:23;;;;;;;2.90;2.00;;;;;;;20.62;80.07;100059.78;4989310;28;21015;-77
2023/08/31 09:13:50;;;;;;;3.07;1.70;;;;;;;20.67;80.17;100063.84;4969364;28;20192;-79
2023/08/31 09:16:28;;;;;;;3.63;2.30;;;;;;;20.68;80.72;100064.72;4976787;28;20215;-77
2023/08/31 09:18:53;;;;;;;4.53;2.20;;;;;;;20.68;79.97;100060.31;4966533;28;20749;-78
2023/08/31 09:21:20;;;;;;;6.03;2.40;;;;;;;20.63;80.96;100062.34;4961101;28;20198;-79
2023/08/31 09:23:55;;;;;;;6.80;3.03;;;;;;;20.40;80.82;100066.22;4969969;28;20194;-79
2023/08/31 09:26:20;;;;;;;4.87;2.00;;;;;;;20.51;80.43;100068.25;4963591;28;20192;-78
2023/08/31 09:28:46;;;;;;;3.60;2.40;;;;;;;20.38;81.82;100068.91;4959966;28;20222;-80
2023/08/31 09:31:11;;;;;;;3.27;1.93;;;;;;;20.57;80.17;100067.94;4964801;28;20551;-77
2023/08/31 09:33:37;;;;;;;2.30;1.57;;;;;;;20.62;79.99;100060.66;4963999;28;20186;-78
2023/08/31 09:36:03;;;;;;;2.57;1.93;;;;;;;20.77;80.68;100064.25;4960954;28;20179;-78
2023/08/31 09:38:29;;;;;;;1.87;1.50;;;;;;;20.86;80.10;100060.25;4971415;28;20260;-78
2023/08/31 09:41:05;;;;;;;3.77;1.90;;;;;;;20.77;79.66;100068.66;4970115;28;20197;-78
2023/08/31 09:43:30;;;;;;;2.93;2.03;;;;;;;20.69;79.07;100056.75;4967091;28;20186;-79
2023/08/31 09:45:56;;;;;;;3.10;2.27;;;;;;;20.68;79.10;100064.72;4966952;28;21478;-78
2023/08/31 09:48:22;;;;;;;5.33;2.37;;;;;;;20.70;78.71;100061.06;4960864;28;20266;-78
2023/08/31 09:50:48;;;;;;;2.70;1.70;;;;;;;20.71;78.57;100062.75;4964050;28;20256;-79
2023/08/31 09:53:16;;;;;;;4.30;2.47;;;;;;;20.75;78.05;100060.84;4973975;28;20198;-80
2023/08/31 09:55:43;;;;;;;5.10;2.10;;;;;;;20.71;78.28;100065.41;4974343;28;20181;-77
2023/08/31 09:58:09;;;;;;;3.07;2.07;;;;;;;20.89;78.41;100064.47;4964984;28;20546;-77
2023/08/31 10:00:36;;;;;;;2.90;1.83;;;;;;;20.88;78.13;100073.31;4965551;28;20994;-77
2023/08/31 10:03:05;;;;;;;2.27;1.70;;;;;;;20.96;78.58;100068.47;4969553;28;20202;-77
2023/08/31 10:05:31;;;;;;;3.17;1.93;;;;;;;21.18;77.69;100073.38;4969836;28;20182;-77
2023/08/31 10:08:00;;;;;;;4.27;2.47;;;;;;;21.36;77.24;100075.91;4967858;28;20208;-78
2023/08/31 10:10:28;;;;;;;2.93;2.00;;;;;;;21.41;75.86;100072.06;4962987;28;20205;-77
2023/08/31 10:12:54;;;;;;;3.60;2.27;;;;;;;21.34;75.68;100070.69;4968279;28;20189;-78
2023/08/31 10:15:20;;;;;;;3.83;2.00;;;;;;;21.30;75.82;100077.09;4967399;28;20557;-77
2023/08/31 10:17:46;;;;;;;2.23;1.67;;;;;;;21.29;76.11;100070.97;4968555;28;20216;-77
2023/08/31 10:20:14;;;;;;;4.00;1.90;;;;;;;21.36;75.92;100068.84;4960022;28;20206;-77
2023/08/31 10:22:39;;;;;;;3.23;2.00;;;;;;;21.45;75.34;100067.47;4966766;28;20272;-77
2023/08/31 10:25:07;;;;;;;2.47;1.90;;;;;;;21.59;75.36;100064.03;4966640;28;20274;-78
2023/08/31 10:27:46;;;;;;;3.43;2.03;;;;;;;21.76;74.84;100069.19;4961410;28;20214;-78
2023/08/31 10:30:21;;;;;;;3.97;2.10;;;;;;;22.03;74.67;100073.72;4980235;28;20279;-77
2023/08/31 10:32:47;;;;;;;3.43;1.93;;;;;;;22.33;73.87;100058.75;4965787;28;20214;-79
2023/08/31 10:35:12;;;;;;;3.80;1.90;;;;;;;22.69;73.69;100060.91;4956663;28;20190;-78
2023/08/31 10:37:40;;;;;;;3.93;1.93;;;;;;;23.17;73.06;100051.72;4964520;28;20192;-76
2023/08/31 10:40:12;;;;;;;3.67;1.87;;;;;;;23.45;72.32;100052.53;4966472;28;20214;-77
2023/08/31 10:42:45;;;;;;;4.37;2.43;;;;;;;23.69;69.95;100055.34;4964272;28;20182;-79
2023/08/31 10:45:10;;;;;;;4.50;1.97;;;;;;;23.88;68.04;100054.09;4960749;28;20248;-80
2023/08/31 10:47:42;;;;;;;3.47;1.90;;;;;;;24.01;68.10;100054.97;4975001;28;20224;-79
2023/08/31 10:50:22;;;;;;;4.23;2.07;;;;;;;23.86;67.41;100056.84;4959009;28;20777;-78
2023/08/31 10:52:48;;;;;;;3.63;2.27;;;;;;;23.79;68.23;100054.72;4963154;28;20192;-76
2023/08/31 10:55:13;;;;;;;6.90;2.13;;;;;;;23.76;67.59;100050.47;4959572;28;20190;-77
2023/08/31 10:57:40;;;;;;;3.30;1.93;;;;;;;23.65;67.46;100045.94;4967804;28;20194;-79
2023/08/31 11:00:07;;;;;;;2.67;2.03;;;;;;;23.33;67.88;100045.44;4959831;28;20229;-76
2023/08/31 11:02:35;;;;;;;3.10;2.00;;;;;;;23.31;68.28;100040.28;4961633;28;20212;-77
2023/08/31 11:05:20;;;;;;;3.37;1.87;;;;;;;23.05;68.78;100039.31;4966241;28;20197;-77
2023/08/31 11:07:47;;;;;;;2.20;2.00;;;;;;;23.02;69.05;100037.75;4964678;28;20221;-78
2023/08/31 11:10:13;;;;;;;2.93;1.90;;;;;;;22.99;69.58;100044.03;4963890;28;20220;-79
2023/08/31 11:12:39;;;;;;;2.30;1.70;;;;;;;22.91;70.15;100045.53;4963811;28;20204;-77
2023/08/31 11:15:05;;;;;;;4.20;2.10;;;;;;;22.73;70.84;100050.16;4964404;28;20713;-76
2023/08/31 11:17:32;;;;;;;3.57;2.07;;;;;;;22.46;70.89;100045.69;4962901;28;20187;-77
2023/08/31 11:19:58;;;;;;;2.90;2.00;;;;;;;22.39;70.48;100047.84;4960890;28;20223;-78
2023/08/31 11:22:24;;;;;;;3.53;1.80;;;;;;;22.66;70.55;100045.28;4960501;28;20191;-78
2023/08/31 11:24:49;;;;;;;3.53;2.00;;;;;;;22.96;69.82;100036.34;4962528;28;20297;-78